ジッダ の空港の天気 - METARとTAF

キング・アブドゥルアズィーズ国際空港(ジッダ) ( OEJN / JED ) - サウジアラビア ジッダ
飛行場実況気象(Metar)
観測時間02/27 23:00 AST (02/27 20:00 UTC)
風向・風速静穏 0m/s
視程10km以上
天気現象
少しの雲 雲底高度 1220m
気温26℃
湿度54%
気圧1010hPa
METAROEJN 272000Z 00000KT 9999 FEW040 26/16 Q1010 NOSIG
過去の天気等 Google飛行場航空写真 Wunderground天気予報

過去48時間のMETAR

飛行場予報(TAF)
発表時間: 2/27 20:00 AST (2/27 17:00 UTC)
予報対象時間: 27日21時 AST ~ 1日3時 AST
風向・風速北北西 4m/s
視程8,000m
全天の4割程度の雲 雲底高度 1,220m
28日0時 AST ~ 28日2時 AST に徐々に
風向・風速南南東 4m/s
28日13時 AST ~ 28日15時 AST に徐々に
風向・風速西南西 8m/s
TAF OEJN 271700Z 2718/2824 33008KT 8000 SCT040
BECMG 2721/2723 15008KT
BECMG 2810/2812 24015KT